sensor_id;sensor_type;location;lat;lon;timestamp;P1;durP1;ratioP1;P2;durP2;ratioP2
38629;SDS011;24384;51.988;4.644;2023-12-22T00:01:05;23.48;;;4.50;;
38629;SDS011;24384;51.988;4.644;2023-12-22T00:03:30;23.02;;;3.58;;
38629;SDS011;24384;51.988;4.644;2023-12-22T00:05:55;22.88;;;3.53;;
38629;SDS011;24384;51.988;4.644;2023-12-22T00:08:21;53.38;;;8.63;;
38629;SDS011;24384;51.988;4.644;2023-12-22T00:10:46;26.05;;;4.70;;
38629;SDS011;24384;51.988;4.644;2023-12-22T00:13:12;30.67;;;4.60;;
38629;SDS011;24384;51.988;4.644;2023-12-22T00:15:37;23.40;;;4.22;;
38629;SDS011;24384;51.988;4.644;2023-12-22T00:18:03;15.20;;;3.42;;
38629;SDS011;24384;51.988;4.644;2023-12-22T00:20:28;19.75;;;3.38;;
38629;SDS011;24384;51.988;4.644;2023-12-22T00:22:54;27.23;;;4.95;;
38629;SDS011;24384;51.988;4.644;2023-12-22T00:25:19;28.05;;;3.38;;
38629;SDS011;24384;51.988;4.644;2023-12-22T00:27:44;21.15;;;3.20;;
38629;SDS011;24384;51.988;4.644;2023-12-22T00:30:10;20.92;;;3.60;;
38629;SDS011;24384;51.988;4.644;2023-12-22T00:32:35;29.73;;;4.03;;
38629;SDS011;24384;51.988;4.644;2023-12-22T00:35:01;20.27;;;5.00;;
38629;SDS011;24384;51.988;4.644;2023-12-22T00:37:26;18.33;;;3.42;;
38629;SDS011;24384;51.988;4.644;2023-12-22T00:39:51;19.95;;;2.97;;
38629;SDS011;24384;51.988;4.644;2023-12-22T00:42:17;23.83;;;4.75;;
38629;SDS011;24384;51.988;4.644;2023-12-22T00:44:42;17.45;;;4.05;;
38629;SDS011;24384;51.988;4.644;2023-12-22T00:47:07;20.80;;;3.60;;
38629;SDS011;24384;51.988;4.644;2023-12-22T00:49:33;20.00;;;2.67;;
38629;SDS011;24384;51.988;4.644;2023-12-22T00:51:58;14.63;;;3.30;;
38629;SDS011;24384;51.988;4.644;2023-12-22T00:54:23;21.80;;;3.45;;
38629;SDS011;24384;51.988;4.644;2023-12-22T00:56:50;18.85;;;3.78;;
38629;SDS011;24384;51.988;4.644;2023-12-22T00:59:15;24.67;;;3.17;;
38629;SDS011;24384;51.988;4.644;2023-12-22T01:01:41;19.33;;;3.67;;
38629;SDS011;24384;51.988;4.644;2023-12-22T01:04:06;15.55;;;2.72;;
38629;SDS011;24384;51.988;4.644;2023-12-22T01:06:31;12.88;;;3.20;;
38629;SDS011;24384;51.988;4.644;2023-12-22T01:08:57;19.42;;;3.28;;
38629;SDS011;24384;51.988;4.644;2023-12-22T01:11:22;23.15;;;3.38;;
38629;SDS011;24384;51.988;4.644;2023-12-22T01:13:47;18.02;;;3.78;;
38629;SDS011;24384;51.988;4.644;2023-12-22T01:16:12;15.55;;;2.97;;
38629;SDS011;24384;51.988;4.644;2023-12-22T01:18:40;15.13;;;3.78;;
38629;SDS011;24384;51.988;4.644;2023-12-22T01:21:07;21.48;;;3.30;;
38629;SDS011;24384;51.988;4.644;2023-12-22T01:23:32;17.60;;;3.40;;
38629;SDS011;24384;51.988;4.644;2023-12-22T01:25:58;28.65;;;3.58;;
38629;SDS011;24384;51.988;4.644;2023-12-22T01:28:23;17.25;;;4.35;;
38629;SDS011;24384;51.988;4.644;2023-12-22T01:30:49;22.02;;;3.30;;
38629;SDS011;24384;51.988;4.644;2023-12-22T01:33:14;18.05;;;2.75;;
38629;SDS011;24384;51.988;4.644;2023-12-22T01:35:39;20.33;;;2.92;;
38629;SDS011;24384;51.988;4.644;2023-12-22T01:38:05;26.30;;;4.95;;
38629;SDS011;24384;51.988;4.644;2023-12-22T01:40:30;17.83;;;3.33;;
38629;SDS011;24384;51.988;4.644;2023-12-22T01:42:55;21.83;;;3.35;;
38629;SDS011;24384;51.988;4.644;2023-12-22T01:45:20;15.90;;;3.95;;
38629;SDS011;24384;51.988;4.644;2023-12-22T01:47:46;28.95;;;5.30;;
38629;SDS011;24384;51.988;4.644;2023-12-22T01:50:12;38.83;;;5.97;;
38629;SDS011;24384;51.988;4.644;2023-12-22T01:52:38;18.02;;;2.88;;
38629;SDS011;24384;51.988;4.644;2023-12-22T01:55:06;23.50;;;4.47;;
38629;SDS011;24384;51.988;4.644;2023-12-22T01:57:35;17.23;;;2.60;;
38629;SDS011;24384;51.988;4.644;2023-12-22T02:00:01;21.95;;;4.25;;
38629;SDS011;24384;51.988;4.644;2023-12-22T02:02:27;18.38;;;3.60;;
38629;SDS011;24384;51.988;4.644;2023-12-22T02:04:53;26.33;;;4.80;;
38629;SDS011;24384;51.988;4.644;2023-12-22T02:07:18;19.40;;;3.83;;
38629;SDS011;24384;51.988;4.644;2023-12-22T02:09:44;29.48;;;4.10;;
38629;SDS011;24384;51.988;4.644;2023-12-22T02:12:09;24.73;;;4.95;;
38629;SDS011;24384;51.988;4.644;2023-12-22T02:14:35;19.73;;;4.25;;
38629;SDS011;24384;51.988;4.644;2023-12-22T02:20:03;25.75;;;3.67;;
38629;SDS011;24384;51.988;4.644;2023-12-22T02:22:29;15.73;;;3.80;;
38629;SDS011;24384;51.988;4.644;2023-12-22T02:24:54;26.25;;;3.53;;
38629;SDS011;24384;51.988;4.644;2023-12-22T02:29:52;13.68;;;2.47;;
38629;SDS011;24384;51.988;4.644;2023-12-22T02:32:23;16.55;;;3.17;;
38629;SDS011;24384;51.988;4.644;2023-12-22T02:34:53;16.58;;;3.03;;
38629;SDS011;24384;51.988;4.644;2023-12-22T02:37:20;23.75;;;5.20;;
38629;SDS011;24384;51.988;4.644;2023-12-22T02:39:47;15.07;;;3.00;;
38629;SDS011;24384;51.988;4.644;2023-12-22T02:42:14;22.90;;;3.95;;
38629;SDS011;24384;51.988;4.644;2023-12-22T02:44:40;18.92;;;3.10;;
38629;SDS011;24384;51.988;4.644;2023-12-22T02:47:05;22.63;;;2.88;;
38629;SDS011;24384;51.988;4.644;2023-12-22T02:49:31;15.00;;;4.07;;
38629;SDS011;24384;51.988;4.644;2023-12-22T02:51:56;16.90;;;2.60;;
38629;SDS011;24384;51.988;4.644;2023-12-22T02:54:21;10.85;;;2.53;;
38629;SDS011;24384;51.988;4.644;2023-12-22T02:56:47;15.85;;;3.95;;
38629;SDS011;24384;51.988;4.644;2023-12-22T02:59:12;15.07;;;3.08;;
38629;SDS011;24384;51.988;4.644;2023-12-22T03:01:38;11.88;;;2.38;;
38629;SDS011;24384;51.988;4.644;2023-12-22T03:04:03;16.33;;;3.17;;
38629;SDS011;24384;51.988;4.644;2023-12-22T03:06:29;14.90;;;2.28;;
38629;SDS011;24384;51.988;4.644;2023-12-22T03:08:54;17.20;;;2.97;;
38629;SDS011;24384;51.988;4.644;2023-12-22T03:11:19;18.85;;;3.75;;
38629;SDS011;24384;51.988;4.644;2023-12-22T03:13:44;15.77;;;2.92;;
38629;SDS011;24384;51.988;4.644;2023-12-22T03:16:10;13.93;;;3.50;;
38629;SDS011;24384;51.988;4.644;2023-12-22T03:18:37;20.27;;;3.28;;
38629;SDS011;24384;51.988;4.644;2023-12-22T03:21:03;18.73;;;2.55;;
38629;SDS011;24384;51.988;4.644;2023-12-22T03:23:29;26.15;;;3.97;;
38629;SDS011;24384;51.988;4.644;2023-12-22T03:25:54;18.33;;;3.65;;
38629;SDS011;24384;51.988;4.644;2023-12-22T03:28:19;17.60;;;2.72;;
38629;SDS011;24384;51.988;4.644;2023-12-22T03:30:44;18.10;;;3.60;;
38629;SDS011;24384;51.988;4.644;2023-12-22T03:33:10;17.33;;;3.40;;
38629;SDS011;24384;51.988;4.644;2023-12-22T03:35:35;12.30;;;2.95;;
38629;SDS011;24384;51.988;4.644;2023-12-22T03:38:00;17.92;;;3.42;;
38629;SDS011;24384;51.988;4.644;2023-12-22T03:40:26;13.40;;;2.20;;
38629;SDS011;24384;51.988;4.644;2023-12-22T03:42:51;24.05;;;3.72;;
38629;SDS011;24384;51.988;4.644;2023-12-22T03:45:16;14.20;;;2.58;;
38629;SDS011;24384;51.988;4.644;2023-12-22T03:47:42;16.20;;;2.90;;
38629;SDS011;24384;51.988;4.644;2023-12-22T03:50:07;18.60;;;3.25;;
38629;SDS011;24384;51.988;4.644;2023-12-22T03:52:33;18.50;;;2.67;;
38629;SDS011;24384;51.988;4.644;2023-12-22T03:54:59;18.67;;;2.65;;
38629;SDS011;24384;51.988;4.644;2023-12-22T03:57:24;18.80;;;3.00;;
38629;SDS011;24384;51.988;4.644;2023-12-22T03:59:49;19.30;;;4.07;;
38629;SDS011;24384;51.988;4.644;2023-12-22T04:02:14;17.17;;;3.80;;
38629;SDS011;24384;51.988;4.644;2023-12-22T04:04:40;17.35;;;2.92;;
38629;SDS011;24384;51.988;4.644;2023-12-22T04:07:05;19.02;;;2.85;;
38629;SDS011;24384;51.988;4.644;2023-12-22T04:09:31;18.17;;;4.35;;
38629;SDS011;24384;51.988;4.644;2023-12-22T04:11:56;16.27;;;3.80;;
38629;SDS011;24384;51.988;4.644;2023-12-22T04:14:21;13.80;;;2.85;;
38629;SDS011;24384;51.988;4.644;2023-12-22T04:16:47;20.58;;;5.97;;
38629;SDS011;24384;51.988;4.644;2023-12-22T04:19:12;25.75;;;2.85;;
38629;SDS011;24384;51.988;4.644;2023-12-22T04:21:37;15.90;;;2.72;;
38629;SDS011;24384;51.988;4.644;2023-12-22T04:24:03;11.60;;;2.67;;
38629;SDS011;24384;51.988;4.644;2023-12-22T04:26:29;18.45;;;3.22;;
38629;SDS011;24384;51.988;4.644;2023-12-22T04:28:54;17.98;;;2.75;;
38629;SDS011;24384;51.988;4.644;2023-12-22T04:31:20;15.75;;;4.72;;
38629;SDS011;24384;51.988;4.644;2023-12-22T04:33:45;10.18;;;2.28;;
38629;SDS011;24384;51.988;4.644;2023-12-22T04:36:10;18.38;;;2.28;;
38629;SDS011;24384;51.988;4.644;2023-12-22T04:38:35;23.40;;;3.38;;
38629;SDS011;24384;51.988;4.644;2023-12-22T04:41:01;10.70;;;2.60;;
38629;SDS011;24384;51.988;4.644;2023-12-22T04:43:26;17.70;;;2.95;;
38629;SDS011;24384;51.988;4.644;2023-12-22T04:45:51;15.93;;;2.78;;
38629;SDS011;24384;51.988;4.644;2023-12-22T04:48:17;16.98;;;3.42;;
38629;SDS011;24384;51.988;4.644;2023-12-22T04:50:42;24.55;;;5.30;;
38629;SDS011;24384;51.988;4.644;2023-12-22T04:53:07;21.00;;;2.95;;
38629;SDS011;24384;51.988;4.644;2023-12-22T04:55:33;16.13;;;2.90;;
38629;SDS011;24384;51.988;4.644;2023-12-22T04:57:58;18.38;;;3.33;;
38629;SDS011;24384;51.988;4.644;2023-12-22T05:00:23;19.58;;;3.72;;
38629;SDS011;24384;51.988;4.644;2023-12-22T05:02:49;16.05;;;4.38;;
38629;SDS011;24384;51.988;4.644;2023-12-22T05:05:14;22.95;;;3.50;;
38629;SDS011;24384;51.988;4.644;2023-12-22T05:07:39;18.98;;;5.60;;
38629;SDS011;24384;51.988;4.644;2023-12-22T05:10:05;21.05;;;4.57;;
38629;SDS011;24384;51.988;4.644;2023-12-22T05:12:31;31.50;;;4.60;;
38629;SDS011;24384;51.988;4.644;2023-12-22T05:14:56;19.33;;;3.33;;
38629;SDS011;24384;51.988;4.644;2023-12-22T05:17:21;10.30;;;2.72;;
38629;SDS011;24384;51.988;4.644;2023-12-22T05:19:47;25.17;;;4.28;;
38629;SDS011;24384;51.988;4.644;2023-12-22T05:22:12;15.95;;;3.50;;
38629;SDS011;24384;51.988;4.644;2023-12-22T05:24:37;23.63;;;3.30;;
38629;SDS011;24384;51.988;4.644;2023-12-22T05:27:03;17.42;;;4.75;;
38629;SDS011;24384;51.988;4.644;2023-12-22T05:29:29;19.85;;;3.08;;
38629;SDS011;24384;51.988;4.644;2023-12-22T05:31:54;28.17;;;4.20;;
38629;SDS011;24384;51.988;4.644;2023-12-22T05:34:19;16.15;;;3.55;;
38629;SDS011;24384;51.988;4.644;2023-12-22T05:36:45;22.23;;;3.83;;
38629;SDS011;24384;51.988;4.644;2023-12-22T05:39:10;21.65;;;4.03;;
38629;SDS011;24384;51.988;4.644;2023-12-22T05:41:35;22.95;;;6.65;;
38629;SDS011;24384;51.988;4.644;2023-12-22T05:44:02;21.52;;;3.70;;
38629;SDS011;24384;51.988;4.644;2023-12-22T05:46:29;21.83;;;4.00;;
38629;SDS011;24384;51.988;4.644;2023-12-22T05:48:54;27.77;;;4.07;;
38629;SDS011;24384;51.988;4.644;2023-12-22T05:51:24;26.08;;;4.78;;
38629;SDS011;24384;51.988;4.644;2023-12-22T05:53:49;26.13;;;4.88;;
38629;SDS011;24384;51.988;4.644;2023-12-22T05:56:18;28.55;;;6.55;;
38629;SDS011;24384;51.988;4.644;2023-12-22T05:58:44;29.50;;;5.80;;
38629;SDS011;24384;51.988;4.644;2023-12-22T06:01:17;33.85;;;6.32;;
38629;SDS011;24384;51.988;4.644;2023-12-22T06:03:43;38.10;;;6.15;;
38629;SDS011;24384;51.988;4.644;2023-12-22T06:06:10;46.00;;;8.50;;
38629;SDS011;24384;51.988;4.644;2023-12-22T06:08:35;27.10;;;4.85;;
38629;SDS011;24384;51.988;4.644;2023-12-22T06:11:01;35.78;;;6.65;;
38629;SDS011;24384;51.988;4.644;2023-12-22T06:13:27;38.10;;;8.45;;
38629;SDS011;24384;51.988;4.644;2023-12-22T06:15:52;43.58;;;7.15;;
38629;SDS011;24384;51.988;4.644;2023-12-22T06:18:17;39.13;;;8.20;;
38629;SDS011;24384;51.988;4.644;2023-12-22T06:20:43;43.03;;;8.38;;
38629;SDS011;24384;51.988;4.644;2023-12-22T06:23:08;66.22;;;8.60;;
38629;SDS011;24384;51.988;4.644;2023-12-22T06:25:34;32.47;;;6.75;;
38629;SDS011;24384;51.988;4.644;2023-12-22T06:27:59;25.67;;;5.30;;
38629;SDS011;24384;51.988;4.644;2023-12-22T06:30:24;33.83;;;6.82;;
38629;SDS011;24384;51.988;4.644;2023-12-22T06:32:49;44.25;;;7.82;;
38629;SDS011;24384;51.988;4.644;2023-12-22T06:35:15;35.80;;;7.72;;
38629;SDS011;24384;51.988;4.644;2023-12-22T06:37:40;36.33;;;5.90;;
38629;SDS011;24384;51.988;4.644;2023-12-22T06:40:05;29.73;;;6.60;;
38629;SDS011;24384;51.988;4.644;2023-12-22T06:42:31;28.52;;;5.80;;
38629;SDS011;24384;51.988;4.644;2023-12-22T06:44:57;24.48;;;5.50;;
38629;SDS011;24384;51.988;4.644;2023-12-22T06:47:22;27.85;;;4.90;;
38629;SDS011;24384;51.988;4.644;2023-12-22T06:49:47;37.55;;;9.05;;
38629;SDS011;24384;51.988;4.644;2023-12-22T06:52:12;40.70;;;5.90;;
38629;SDS011;24384;51.988;4.644;2023-12-22T06:54:38;35.08;;;5.47;;
38629;SDS011;24384;51.988;4.644;2023-12-22T06:57:03;37.95;;;6.75;;
38629;SDS011;24384;51.988;4.644;2023-12-22T06:59:29;27.20;;;5.97;;
38629;SDS011;24384;51.988;4.644;2023-12-22T07:01:54;32.22;;;5.40;;
38629;SDS011;24384;51.988;4.644;2023-12-22T07:04:20;26.25;;;4.93;;
38629;SDS011;24384;51.988;4.644;2023-12-22T07:06:46;28.23;;;5.00;;
38629;SDS011;24384;51.988;4.644;2023-12-22T07:11:48;29.50;;;5.40;;
38629;SDS011;24384;51.988;4.644;2023-12-22T07:14:17;24.10;;;4.72;;
38629;SDS011;24384;51.988;4.644;2023-12-22T07:16:43;25.42;;;6.10;;
38629;SDS011;24384;51.988;4.644;2023-12-22T07:19:08;22.38;;;4.82;;
38629;SDS011;24384;51.988;4.644;2023-12-22T07:21:34;32.40;;;6.70;;
38629;SDS011;24384;51.988;4.644;2023-12-22T07:24:00;31.02;;;5.38;;
38629;SDS011;24384;51.988;4.644;2023-12-22T07:26:26;31.35;;;4.80;;
38629;SDS011;24384;51.988;4.644;2023-12-22T07:28:52;30.38;;;5.80;;
38629;SDS011;24384;51.988;4.644;2023-12-22T07:31:17;29.95;;;4.97;;
38629;SDS011;24384;51.988;4.644;2023-12-22T07:33:43;33.00;;;6.18;;
38629;SDS011;24384;51.988;4.644;2023-12-22T07:36:08;47.53;;;7.57;;
38629;SDS011;24384;51.988;4.644;2023-12-22T07:38:34;29.88;;;4.72;;
38629;SDS011;24384;51.988;4.644;2023-12-22T07:41:00;38.47;;;5.10;;
38629;SDS011;24384;51.988;4.644;2023-12-22T07:43:25;24.52;;;4.60;;
38629;SDS011;24384;51.988;4.644;2023-12-22T07:45:51;28.45;;;5.53;;
38629;SDS011;24384;51.988;4.644;2023-12-22T07:48:19;21.52;;;4.72;;
38629;SDS011;24384;51.988;4.644;2023-12-22T07:50:44;24.65;;;4.13;;
38629;SDS011;24384;51.988;4.644;2023-12-22T07:53:10;19.35;;;5.03;;
38629;SDS011;24384;51.988;4.644;2023-12-22T07:55:36;31.38;;;5.78;;
38629;SDS011;24384;51.988;4.644;2023-12-22T07:58:03;29.63;;;5.25;;
38629;SDS011;24384;51.988;4.644;2023-12-22T08:00:29;26.85;;;4.38;;
38629;SDS011;24384;51.988;4.644;2023-12-22T08:02:54;25.30;;;3.95;;
38629;SDS011;24384;51.988;4.644;2023-12-22T08:05:19;18.15;;;4.22;;
38629;SDS011;24384;51.988;4.644;2023-12-22T08:07:45;21.15;;;5.35;;
38629;SDS011;24384;51.988;4.644;2023-12-22T08:10:10;28.85;;;4.57;;
38629;SDS011;24384;51.988;4.644;2023-12-22T08:12:36;19.00;;;3.33;;
38629;SDS011;24384;51.988;4.644;2023-12-22T08:15:02;15.68;;;4.38;;
38629;SDS011;24384;51.988;4.644;2023-12-22T08:17:28;24.90;;;3.92;;
38629;SDS011;24384;51.988;4.644;2023-12-22T08:19:54;29.08;;;3.63;;
38629;SDS011;24384;51.988;4.644;2023-12-22T08:22:19;17.55;;;3.83;;
38629;SDS011;24384;51.988;4.644;2023-12-22T08:24:44;26.17;;;2.97;;
38629;SDS011;24384;51.988;4.644;2023-12-22T08:27:10;20.27;;;3.75;;
38629;SDS011;24384;51.988;4.644;2023-12-22T08:29:35;19.45;;;3.50;;
38629;SDS011;24384;51.988;4.644;2023-12-22T08:32:01;16.67;;;3.38;;
38629;SDS011;24384;51.988;4.644;2023-12-22T08:34:26;19.80;;;2.60;;
38629;SDS011;24384;51.988;4.644;2023-12-22T08:36:52;17.52;;;3.78;;
38629;SDS011;24384;51.988;4.644;2023-12-22T08:39:18;15.43;;;3.20;;
38629;SDS011;24384;51.988;4.644;2023-12-22T08:41:43;10.23;;;2.60;;
38629;SDS011;24384;51.988;4.644;2023-12-22T08:44:09;15.25;;;3.28;;
38629;SDS011;24384;51.988;4.644;2023-12-22T08:46:34;13.13;;;2.50;;
38629;SDS011;24384;51.988;4.644;2023-12-22T08:49:02;19.23;;;3.33;;
38629;SDS011;24384;51.988;4.644;2023-12-22T08:51:27;14.52;;;2.13;;
38629;SDS011;24384;51.988;4.644;2023-12-22T08:53:54;11.23;;;2.70;;
38629;SDS011;24384;51.988;4.644;2023-12-22T08:56:20;17.92;;;2.35;;
38629;SDS011;24384;51.988;4.644;2023-12-22T08:58:46;23.20;;;4.22;;
38629;SDS011;24384;51.988;4.644;2023-12-22T09:01:15;12.32;;;2.78;;
38629;SDS011;24384;51.988;4.644;2023-12-22T09:03:41;10.55;;;1.83;;
38629;SDS011;24384;51.988;4.644;2023-12-22T09:06:10;17.05;;;2.03;;
38629;SDS011;24384;51.988;4.644;2023-12-22T09:08:46;14.00;;;3.05;;
38629;SDS011;24384;51.988;4.644;2023-12-22T09:11:12;10.10;;;3.30;;
38629;SDS011;24384;51.988;4.644;2023-12-22T09:13:38;12.70;;;1.77;;
38629;SDS011;24384;51.988;4.644;2023-12-22T09:16:04;17.33;;;4.78;;
38629;SDS011;24384;51.988;4.644;2023-12-22T09:18:30;14.10;;;2.13;;
38629;SDS011;24384;51.988;4.644;2023-12-22T09:20:56;16.85;;;2.08;;
38629;SDS011;24384;51.988;4.644;2023-12-22T09:23:22;9.20;;;2.47;;
38629;SDS011;24384;51.988;4.644;2023-12-22T09:25:48;9.75;;;2.85;;
38629;SDS011;24384;51.988;4.644;2023-12-22T09:28:13;11.25;;;2.33;;
38629;SDS011;24384;51.988;4.644;2023-12-22T09:30:39;5.97;;;1.50;;
38629;SDS011;24384;51.988;4.644;2023-12-22T09:33:04;10.68;;;2.08;;
38629;SDS011;24384;51.988;4.644;2023-12-22T09:35:29;11.13;;;3.42;;
38629;SDS011;24384;51.988;4.644;2023-12-22T09:37:55;8.55;;;2.42;;
38629;SDS011;24384;51.988;4.644;2023-12-22T09:40:20;9.23;;;2.00;;
38629;SDS011;24384;51.988;4.644;2023-12-22T09:42:47;10.18;;;2.05;;
38629;SDS011;24384;51.988;4.644;2023-12-22T09:45:13;7.70;;;1.98;;
38629;SDS011;24384;51.988;4.644;2023-12-22T09:47:43;8.48;;;1.80;;
38629;SDS011;24384;51.988;4.644;2023-12-22T09:50:09;9.52;;;2.13;;
38629;SDS011;24384;51.988;4.644;2023-12-22T09:52:35;11.10;;;2.05;;
38629;SDS011;24384;51.988;4.644;2023-12-22T09:55:01;11.02;;;2.85;;
38629;SDS011;24384;51.988;4.644;2023-12-22T09:57:28;10.38;;;1.73;;
38629;SDS011;24384;51.988;4.644;2023-12-22T09:59:55;9.38;;;1.70;;
38629;SDS011;24384;51.988;4.644;2023-12-22T10:02:23;13.75;;;2.10;;
38629;SDS011;24384;51.988;4.644;2023-12-22T10:04:52;10.05;;;2.08;;
38629;SDS011;24384;51.988;4.644;2023-12-22T10:07:18;8.93;;;1.40;;
38629;SDS011;24384;51.988;4.644;2023-12-22T10:09:45;13.48;;;2.97;;
38629;SDS011;24384;51.988;4.644;2023-12-22T10:12:12;12.75;;;2.22;;
38629;SDS011;24384;51.988;4.644;2023-12-22T10:14:41;4.95;;;1.65;;
38629;SDS011;24384;51.988;4.644;2023-12-22T10:17:06;6.05;;;1.98;;
38629;SDS011;24384;51.988;4.644;2023-12-22T10:19:32;12.85;;;2.78;;
38629;SDS011;24384;51.988;4.644;2023-12-22T10:21:57;10.60;;;3.15;;
38629;SDS011;24384;51.988;4.644;2023-12-22T10:27:04;10.18;;;1.73;;
38629;SDS011;24384;51.988;4.644;2023-12-22T10:29:29;8.05;;;1.90;;
38629;SDS011;24384;51.988;4.644;2023-12-22T10:31:55;9.50;;;2.17;;
38629;SDS011;24384;51.988;4.644;2023-12-22T10:34:20;8.57;;;1.60;;
38629;SDS011;24384;51.988;4.644;2023-12-22T10:36:45;10.00;;;3.17;;
38629;SDS011;24384;51.988;4.644;2023-12-22T10:39:11;13.23;;;2.13;;
38629;SDS011;24384;51.988;4.644;2023-12-22T10:41:36;9.80;;;2.17;;
38629;SDS011;24384;51.988;4.644;2023-12-22T10:44:02;10.55;;;1.98;;
38629;SDS011;24384;51.988;4.644;2023-12-22T10:46:28;8.05;;;1.83;;
38629;SDS011;24384;51.988;4.644;2023-12-22T10:48:58;11.32;;;2.53;;
38629;SDS011;24384;51.988;4.644;2023-12-22T10:51:24;10.65;;;1.88;;
38629;SDS011;24384;51.988;4.644;2023-12-22T10:53:49;12.40;;;2.00;;
38629;SDS011;24384;51.988;4.644;2023-12-22T10:56:16;4.95;;;1.52;;
38629;SDS011;24384;51.988;4.644;2023-12-22T10:58:42;11.77;;;1.52;;
38629;SDS011;24384;51.988;4.644;2023-12-22T11:01:07;10.23;;;1.63;;
38629;SDS011;24384;51.988;4.644;2023-12-22T11:03:34;7.45;;;1.58;;
38629;SDS011;24384;51.988;4.644;2023-12-22T11:06:03;8.93;;;1.67;;
38629;SDS011;24384;51.988;4.644;2023-12-22T11:08:31;12.48;;;2.13;;
38629;SDS011;24384;51.988;4.644;2023-12-22T11:11:00;8.88;;;1.38;;
38629;SDS011;24384;51.988;4.644;2023-12-22T11:13:37;11.63;;;2.22;;
38629;SDS011;24384;51.988;4.644;2023-12-22T11:16:03;10.35;;;2.15;;
38629;SDS011;24384;51.988;4.644;2023-12-22T11:18:30;15.82;;;2.50;;
38629;SDS011;24384;51.988;4.644;2023-12-22T11:20:56;13.00;;;3.38;;
38629;SDS011;24384;51.988;4.644;2023-12-22T11:23:22;18.10;;;2.75;;
38629;SDS011;24384;51.988;4.644;2023-12-22T11:25:49;19.60;;;2.63;;
38629;SDS011;24384;51.988;4.644;2023-12-22T11:28:18;11.73;;;2.45;;
38629;SDS011;24384;51.988;4.644;2023-12-22T11:30:46;10.05;;;2.80;;
38629;SDS011;24384;51.988;4.644;2023-12-22T11:33:15;8.50;;;1.88;;
38629;SDS011;24384;51.988;4.644;2023-12-22T11:35:41;8.20;;;2.63;;
38629;SDS011;24384;51.988;4.644;2023-12-22T11:38:07;11.30;;;1.85;;
38629;SDS011;24384;51.988;4.644;2023-12-22T11:40:36;18.90;;;3.40;;
38629;SDS011;24384;51.988;4.644;2023-12-22T11:43:02;14.02;;;2.72;;
38629;SDS011;24384;51.988;4.644;2023-12-22T11:45:30;7.50;;;1.90;;
38629;SDS011;24384;51.988;4.644;2023-12-22T11:47:56;21.27;;;3.25;;
38629;SDS011;24384;51.988;4.644;2023-12-22T11:50:28;9.70;;;2.22;;
38629;SDS011;24384;51.988;4.644;2023-12-22T11:52:55;15.68;;;3.60;;
38629;SDS011;24384;51.988;4.644;2023-12-22T11:55:55;13.50;;;4.43;;
38629;SDS011;24384;51.988;4.644;2023-12-22T11:58:43;11.07;;;1.77;;
38629;SDS011;24384;51.988;4.644;2023-12-22T12:01:24;14.93;;;2.38;;
38629;SDS011;24384;51.988;4.644;2023-12-22T12:03:55;11.15;;;1.92;;
38629;SDS011;24384;51.988;4.644;2023-12-22T12:08:54;9.25;;;1.90;;
38629;SDS011;24384;51.988;4.644;2023-12-22T12:11:20;11.45;;;2.25;;
38629;SDS011;24384;51.988;4.644;2023-12-22T12:14:12;9.35;;;1.60;;
38629;SDS011;24384;51.988;4.644;2023-12-22T12:16:39;7.18;;;1.50;;
38629;SDS011;24384;51.988;4.644;2023-12-22T12:19:08;15.75;;;2.38;;
38629;SDS011;24384;51.988;4.644;2023-12-22T12:21:34;15.35;;;2.17;;
38629;SDS011;24384;51.988;4.644;2023-12-22T12:23:59;8.10;;;2.00;;
38629;SDS011;24384;51.988;4.644;2023-12-22T12:26:25;13.82;;;2.17;;
38629;SDS011;24384;51.988;4.644;2023-12-22T12:28:51;8.05;;;1.67;;
38629;SDS011;24384;51.988;4.644;2023-12-22T12:31:17;8.07;;;1.80;;
38629;SDS011;24384;51.988;4.644;2023-12-22T12:33:42;13.40;;;3.42;;
38629;SDS011;24384;51.988;4.644;2023-12-22T12:36:09;9.93;;;1.88;;
38629;SDS011;24384;51.988;4.644;2023-12-22T12:38:37;12.40;;;2.00;;
38629;SDS011;24384;51.988;4.644;2023-12-22T12:41:09;12.40;;;4.47;;
38629;SDS011;24384;51.988;4.644;2023-12-22T12:43:37;17.65;;;3.25;;
38629;SDS011;24384;51.988;4.644;2023-12-22T12:46:07;15.10;;;3.05;;
38629;SDS011;24384;51.988;4.644;2023-12-22T12:48:32;20.13;;;3.45;;
38629;SDS011;24384;51.988;4.644;2023-12-22T12:51:04;8.82;;;1.52;;
38629;SDS011;24384;51.988;4.644;2023-12-22T12:53:34;16.88;;;2.83;;
38629;SDS011;24384;51.988;4.644;2023-12-22T12:56:01;21.67;;;4.57;;
38629;SDS011;24384;51.988;4.644;2023-12-22T12:58:27;18.42;;;3.35;;
38629;SDS011;24384;51.988;4.644;2023-12-22T13:01:03;17.77;;;5.95;;
38629;SDS011;24384;51.988;4.644;2023-12-22T13:03:53;11.70;;;2.13;;
38629;SDS011;24384;51.988;4.644;2023-12-22T13:06:18;10.98;;;1.98;;
38629;SDS011;24384;51.988;4.644;2023-12-22T13:08:48;16.77;;;2.88;;
38629;SDS011;24384;51.988;4.644;2023-12-22T13:11:14;15.38;;;3.70;;
38629;SDS011;24384;51.988;4.644;2023-12-22T13:13:41;16.27;;;3.25;;
38629;SDS011;24384;51.988;4.644;2023-12-22T13:16:07;15.45;;;2.83;;
38629;SDS011;24384;51.988;4.644;2023-12-22T13:18:35;9.80;;;2.10;;
38629;SDS011;24384;51.988;4.644;2023-12-22T13:21:02;25.83;;;4.57;;
38629;SDS011;24384;51.988;4.644;2023-12-22T13:23:28;17.67;;;3.30;;
38629;SDS011;24384;51.988;4.644;2023-12-22T13:25:53;9.68;;;2.58;;
38629;SDS011;24384;51.988;4.644;2023-12-22T13:28:28;11.88;;;2.55;;
38629;SDS011;24384;51.988;4.644;2023-12-22T13:30:53;8.57;;;2.20;;
38629;SDS011;24384;51.988;4.644;2023-12-22T13:33:19;13.20;;;3.05;;
38629;SDS011;24384;51.988;4.644;2023-12-22T13:35:45;9.82;;;2.10;;
38629;SDS011;24384;51.988;4.644;2023-12-22T13:38:11;17.67;;;3.60;;
38629;SDS011;24384;51.988;4.644;2023-12-22T13:40:37;20.52;;;4.15;;
38629;SDS011;24384;51.988;4.644;2023-12-22T13:43:03;19.58;;;3.00;;
38629;SDS011;24384;51.988;4.644;2023-12-22T13:45:29;17.00;;;3.67;;
38629;SDS011;24384;51.988;4.644;2023-12-22T13:47:56;20.67;;;3.10;;
38629;SDS011;24384;51.988;4.644;2023-12-22T13:50:22;15.75;;;2.25;;
38629;SDS011;24384;51.988;4.644;2023-12-22T13:52:50;18.00;;;3.53;;
38629;SDS011;24384;51.988;4.644;2023-12-22T13:55:16;12.25;;;2.80;;
38629;SDS011;24384;51.988;4.644;2023-12-22T13:57:43;15.75;;;2.55;;
38629;SDS011;24384;51.988;4.644;2023-12-22T14:02:44;14.05;;;2.38;;
38629;SDS011;24384;51.988;4.644;2023-12-22T14:05:11;17.30;;;4.05;;
38629;SDS011;24384;51.988;4.644;2023-12-22T14:07:37;18.40;;;2.78;;
38629;SDS011;24384;51.988;4.644;2023-12-22T14:10:05;17.52;;;2.55;;
38629;SDS011;24384;51.988;4.644;2023-12-22T14:12:35;17.50;;;3.38;;
38629;SDS011;24384;51.988;4.644;2023-12-22T14:15:00;16.75;;;2.97;;
38629;SDS011;24384;51.988;4.644;2023-12-22T14:17:25;18.33;;;3.13;;
38629;SDS011;24384;51.988;4.644;2023-12-22T14:19:51;16.83;;;3.70;;
38629;SDS011;24384;51.988;4.644;2023-12-22T14:22:16;20.30;;;3.47;;
38629;SDS011;24384;51.988;4.644;2023-12-22T14:24:43;21.33;;;3.13;;
38629;SDS011;24384;51.988;4.644;2023-12-22T14:27:08;23.13;;;3.45;;
38629;SDS011;24384;51.988;4.644;2023-12-22T14:29:35;19.80;;;5.47;;
38629;SDS011;24384;51.988;4.644;2023-12-22T14:32:05;11.93;;;2.42;;
38629;SDS011;24384;51.988;4.644;2023-12-22T14:34:33;20.10;;;3.17;;
38629;SDS011;24384;51.988;4.644;2023-12-22T14:36:59;17.65;;;3.20;;
38629;SDS011;24384;51.988;4.644;2023-12-22T14:39:25;19.70;;;2.45;;
38629;SDS011;24384;51.988;4.644;2023-12-22T14:41:51;14.65;;;2.53;;
38629;SDS011;24384;51.988;4.644;2023-12-22T14:44:17;9.77;;;2.25;;
38629;SDS011;24384;51.988;4.644;2023-12-22T14:46:42;16.98;;;2.78;;